sensor_id;sensor_type;location;lat;lon;timestamp;P1;durP1;ratioP1;P2;durP2;ratioP2
6111;SDS011;3086;48.802;9.394;2022-12-16T00:00:36;62.73;;;31.90;;
6111;SDS011;3086;48.802;9.394;2022-12-16T00:03:57;55.67;;;31.27;;
6111;SDS011;3086;48.802;9.394;2022-12-16T00:07:19;56.03;;;31.67;;
6111;SDS011;3086;48.802;9.394;2022-12-16T00:10:40;59.97;;;32.57;;
6111;SDS011;3086;48.802;9.394;2022-12-16T00:14:14;54.93;;;30.47;;
6111;SDS011;3086;48.802;9.394;2022-12-16T00:17:35;63.93;;;34.10;;
6111;SDS011;3086;48.802;9.394;2022-12-16T00:20:58;62.70;;;32.53;;
6111;SDS011;3086;48.802;9.394;2022-12-16T00:24:20;61.87;;;33.13;;
6111;SDS011;3086;48.802;9.394;2022-12-16T00:27:41;60.50;;;33.80;;
6111;SDS011;3086;48.802;9.394;2022-12-16T00:31:04;58.23;;;32.40;;
6111;SDS011;3086;48.802;9.394;2022-12-16T00:34:26;56.77;;;32.47;;
6111;SDS011;3086;48.802;9.394;2022-12-16T00:37:48;55.83;;;31.07;;
6111;SDS011;3086;48.802;9.394;2022-12-16T00:41:09;62.83;;;34.47;;
6111;SDS011;3086;48.802;9.394;2022-12-16T00:44:31;60.60;;;33.23;;
6111;SDS011;3086;48.802;9.394;2022-12-16T00:47:54;59.47;;;31.73;;
6111;SDS011;3086;48.802;9.394;2022-12-16T00:51:15;55.37;;;32.97;;
6111;SDS011;3086;48.802;9.394;2022-12-16T00:54:37;66.00;;;33.40;;
6111;SDS011;3086;48.802;9.394;2022-12-16T00:57:58;61.93;;;34.23;;
6111;SDS011;3086;48.802;9.394;2022-12-16T01:01:20;62.70;;;34.93;;
6111;SDS011;3086;48.802;9.394;2022-12-16T01:04:42;61.67;;;32.93;;
6111;SDS011;3086;48.802;9.394;2022-12-16T01:08:04;67.57;;;34.10;;
6111;SDS011;3086;48.802;9.394;2022-12-16T01:11:26;62.50;;;34.43;;
6111;SDS011;3086;48.802;9.394;2022-12-16T01:14:47;60.87;;;35.33;;
6111;SDS011;3086;48.802;9.394;2022-12-16T01:18:09;60.33;;;34.20;;
6111;SDS011;3086;48.802;9.394;2022-12-16T01:21:32;51.77;;;31.83;;
6111;SDS011;3086;48.802;9.394;2022-12-16T01:24:53;56.77;;;33.73;;
6111;SDS011;3086;48.802;9.394;2022-12-16T01:28:15;60.33;;;33.77;;
6111;SDS011;3086;48.802;9.394;2022-12-16T01:31:36;51.80;;;31.63;;
6111;SDS011;3086;48.802;9.394;2022-12-16T01:34:58;52.40;;;29.53;;
6111;SDS011;3086;48.802;9.394;2022-12-16T01:38:21;53.00;;;30.87;;
6111;SDS011;3086;48.802;9.394;2022-12-16T01:41:42;52.20;;;30.67;;
6111;SDS011;3086;48.802;9.394;2022-12-16T01:45:21;58.60;;;30.33;;
6111;SDS011;3086;48.802;9.394;2022-12-16T01:48:50;57.87;;;32.27;;
6111;SDS011;3086;48.802;9.394;2022-12-16T01:52:13;63.80;;;35.33;;
6111;SDS011;3086;48.802;9.394;2022-12-16T01:55:39;51.47;;;31.27;;
6111;SDS011;3086;48.802;9.394;2022-12-16T01:59:03;57.50;;;31.73;;
6111;SDS011;3086;48.802;9.394;2022-12-16T02:02:25;60.07;;;31.77;;
6111;SDS011;3086;48.802;9.394;2022-12-16T02:05:47;59.03;;;33.23;;
6111;SDS011;3086;48.802;9.394;2022-12-16T02:09:10;66.13;;;34.03;;
6111;SDS011;3086;48.802;9.394;2022-12-16T02:12:36;53.17;;;32.00;;
6111;SDS011;3086;48.802;9.394;2022-12-16T02:16:03;60.50;;;32.80;;
6111;SDS011;3086;48.802;9.394;2022-12-16T02:19:33;58.67;;;33.07;;
6111;SDS011;3086;48.802;9.394;2022-12-16T02:23:11;64.83;;;33.53;;
6111;SDS011;3086;48.802;9.394;2022-12-16T02:26:52;54.77;;;32.33;;
6111;SDS011;3086;48.802;9.394;2022-12-16T02:30:38;56.87;;;31.07;;
6111;SDS011;3086;48.802;9.394;2022-12-16T02:34:09;56.17;;;31.60;;
6111;SDS011;3086;48.802;9.394;2022-12-16T02:37:36;55.60;;;31.17;;
6111;SDS011;3086;48.802;9.394;2022-12-16T02:41:00;64.10;;;30.13;;
6111;SDS011;3086;48.802;9.394;2022-12-16T02:44:24;56.03;;;30.57;;
6111;SDS011;3086;48.802;9.394;2022-12-16T02:47:48;57.73;;;31.67;;
6111;SDS011;3086;48.802;9.394;2022-12-16T02:51:09;60.83;;;33.40;;
6111;SDS011;3086;48.802;9.394;2022-12-16T02:54:31;56.97;;;32.90;;
6111;SDS011;3086;48.802;9.394;2022-12-16T02:58:00;58.47;;;33.27;;
6111;SDS011;3086;48.802;9.394;2022-12-16T03:01:30;59.83;;;33.63;;
6111;SDS011;3086;48.802;9.394;2022-12-16T03:04:57;63.70;;;34.70;;
6111;SDS011;3086;48.802;9.394;2022-12-16T03:08:23;66.63;;;34.13;;
6111;SDS011;3086;48.802;9.394;2022-12-16T03:11:48;56.13;;;32.33;;
6111;SDS011;3086;48.802;9.394;2022-12-16T03:15:11;60.37;;;33.73;;
6111;SDS011;3086;48.802;9.394;2022-12-16T03:18:35;60.00;;;31.77;;
6111;SDS011;3086;48.802;9.394;2022-12-16T03:22:01;62.70;;;34.30;;
6111;SDS011;3086;48.802;9.394;2022-12-16T03:25:24;63.63;;;34.90;;
6111;SDS011;3086;48.802;9.394;2022-12-16T03:28:47;64.33;;;32.90;;
6111;SDS011;3086;48.802;9.394;2022-12-16T03:32:12;63.07;;;34.83;;
6111;SDS011;3086;48.802;9.394;2022-12-16T03:35:37;59.50;;;34.57;;
6111;SDS011;3086;48.802;9.394;2022-12-16T03:39:03;60.33;;;31.90;;
6111;SDS011;3086;48.802;9.394;2022-12-16T03:42:26;57.47;;;32.63;;
6111;SDS011;3086;48.802;9.394;2022-12-16T03:45:49;56.40;;;33.37;;
6111;SDS011;3086;48.802;9.394;2022-12-16T03:49:11;54.07;;;30.77;;
6111;SDS011;3086;48.802;9.394;2022-12-16T03:52:33;56.23;;;33.13;;
6111;SDS011;3086;48.802;9.394;2022-12-16T03:55:56;65.33;;;35.03;;
6111;SDS011;3086;48.802;9.394;2022-12-16T03:59:17;55.63;;;34.30;;
6111;SDS011;3086;48.802;9.394;2022-12-16T04:02:39;59.93;;;33.33;;
6111;SDS011;3086;48.802;9.394;2022-12-16T04:06:01;55.20;;;31.50;;
6111;SDS011;3086;48.802;9.394;2022-12-16T04:09:23;59.20;;;32.73;;
6111;SDS011;3086;48.802;9.394;2022-12-16T04:12:45;65.70;;;34.20;;
6111;SDS011;3086;48.802;9.394;2022-12-16T04:16:25;60.63;;;31.93;;
6111;SDS011;3086;48.802;9.394;2022-12-16T04:20:07;54.20;;;30.33;;
6111;SDS011;3086;48.802;9.394;2022-12-16T04:24:03;50.23;;;29.90;;
6111;SDS011;3086;48.802;9.394;2022-12-16T04:27:42;47.23;;;28.20;;
6111;SDS011;3086;48.802;9.394;2022-12-16T04:31:07;48.47;;;28.80;;
6111;SDS011;3086;48.802;9.394;2022-12-16T04:34:28;47.80;;;28.50;;
6111;SDS011;3086;48.802;9.394;2022-12-16T04:37:49;46.43;;;28.30;;
6111;SDS011;3086;48.802;9.394;2022-12-16T04:41:25;50.50;;;30.30;;
6111;SDS011;3086;48.802;9.394;2022-12-16T04:45:04;51.53;;;28.17;;
6111;SDS011;3086;48.802;9.394;2022-12-16T04:48:54;44.07;;;27.33;;
6111;SDS011;3086;48.802;9.394;2022-12-16T04:52:33;46.27;;;27.07;;
6111;SDS011;3086;48.802;9.394;2022-12-16T04:56:12;41.87;;;25.27;;
6111;SDS011;3086;48.802;9.394;2022-12-16T04:59:51;54.23;;;26.13;;
6111;SDS011;3086;48.802;9.394;2022-12-16T05:03:30;47.00;;;27.23;;
6111;SDS011;3086;48.802;9.394;2022-12-16T05:07:11;48.67;;;27.70;;
6111;SDS011;3086;48.802;9.394;2022-12-16T05:10:50;43.33;;;26.90;;
6111;SDS011;3086;48.802;9.394;2022-12-16T05:14:29;44.00;;;26.77;;
6111;SDS011;3086;48.802;9.394;2022-12-16T05:18:08;44.77;;;25.63;;
6111;SDS011;3086;48.802;9.394;2022-12-16T05:21:47;43.37;;;25.43;;
6111;SDS011;3086;48.802;9.394;2022-12-16T05:25:28;45.47;;;26.90;;
6111;SDS011;3086;48.802;9.394;2022-12-16T05:29:07;39.00;;;24.70;;
6111;SDS011;3086;48.802;9.394;2022-12-16T05:32:47;41.57;;;25.03;;
6111;SDS011;3086;48.802;9.394;2022-12-16T05:36:26;44.53;;;25.67;;
6111;SDS011;3086;48.802;9.394;2022-12-16T05:40:06;46.03;;;25.30;;
6111;SDS011;3086;48.802;9.394;2022-12-16T05:43:47;43.20;;;26.27;;
6111;SDS011;3086;48.802;9.394;2022-12-16T05:47:26;43.73;;;24.33;;
6111;SDS011;3086;48.802;9.394;2022-12-16T05:51:05;42.50;;;25.10;;
6111;SDS011;3086;48.802;9.394;2022-12-16T05:54:44;41.33;;;23.80;;
6111;SDS011;3086;48.802;9.394;2022-12-16T05:58:22;44.33;;;25.90;;
6111;SDS011;3086;48.802;9.394;2022-12-16T06:02:03;40.03;;;24.80;;
6111;SDS011;3086;48.802;9.394;2022-12-16T06:05:43;43.37;;;22.90;;
6111;SDS011;3086;48.802;9.394;2022-12-16T06:09:22;42.30;;;25.23;;
6111;SDS011;3086;48.802;9.394;2022-12-16T06:13:00;40.87;;;25.17;;
6111;SDS011;3086;48.802;9.394;2022-12-16T06:16:39;41.70;;;24.43;;
6111;SDS011;3086;48.802;9.394;2022-12-16T06:20:20;44.13;;;24.70;;
6111;SDS011;3086;48.802;9.394;2022-12-16T06:23:59;45.97;;;26.57;;
6111;SDS011;3086;48.802;9.394;2022-12-16T06:27:38;37.67;;;24.97;;
6111;SDS011;3086;48.802;9.394;2022-12-16T06:31:17;45.80;;;24.83;;
6111;SDS011;3086;48.802;9.394;2022-12-16T06:34:56;43.93;;;25.30;;
6111;SDS011;3086;48.802;9.394;2022-12-16T06:38:36;42.13;;;24.60;;
6111;SDS011;3086;48.802;9.394;2022-12-16T06:42:15;45.43;;;25.97;;
6111;SDS011;3086;48.802;9.394;2022-12-16T06:45:54;44.13;;;25.83;;
6111;SDS011;3086;48.802;9.394;2022-12-16T06:49:34;48.47;;;26.60;;
6111;SDS011;3086;48.802;9.394;2022-12-16T06:53:15;37.30;;;23.77;;
6111;SDS011;3086;48.802;9.394;2022-12-16T06:56:59;38.57;;;24.93;;
6111;SDS011;3086;48.802;9.394;2022-12-16T07:00:41;43.20;;;25.57;;
6111;SDS011;3086;48.802;9.394;2022-12-16T07:04:20;36.57;;;23.67;;
6111;SDS011;3086;48.802;9.394;2022-12-16T07:07:59;38.20;;;22.17;;
6111;SDS011;3086;48.802;9.394;2022-12-16T07:11:38;31.90;;;21.07;;
6111;SDS011;3086;48.802;9.394;2022-12-16T07:15:22;32.47;;;20.23;;
6111;SDS011;3086;48.802;9.394;2022-12-16T07:19:01;31.60;;;20.80;;
6111;SDS011;3086;48.802;9.394;2022-12-16T07:22:41;32.13;;;19.90;;
6111;SDS011;3086;48.802;9.394;2022-12-16T07:26:24;28.10;;;18.53;;
6111;SDS011;3086;48.802;9.394;2022-12-16T07:30:04;35.73;;;21.47;;
6111;SDS011;3086;48.802;9.394;2022-12-16T07:33:45;43.33;;;26.17;;
6111;SDS011;3086;48.802;9.394;2022-12-16T07:37:27;35.13;;;22.37;;
6111;SDS011;3086;48.802;9.394;2022-12-16T07:41:07;38.57;;;24.53;;
6111;SDS011;3086;48.802;9.394;2022-12-16T07:44:46;43.13;;;21.60;;
6111;SDS011;3086;48.802;9.394;2022-12-16T07:48:26;34.63;;;20.50;;
6111;SDS011;3086;48.802;9.394;2022-12-16T07:52:07;35.00;;;20.30;;
6111;SDS011;3086;48.802;9.394;2022-12-16T07:55:46;30.93;;;18.77;;
6111;SDS011;3086;48.802;9.394;2022-12-16T07:59:25;29.93;;;19.70;;
6111;SDS011;3086;48.802;9.394;2022-12-16T08:03:04;26.87;;;18.30;;
6111;SDS011;3086;48.802;9.394;2022-12-16T08:06:44;31.17;;;19.00;;
6111;SDS011;3086;48.802;9.394;2022-12-16T08:10:30;36.47;;;19.73;;
6111;SDS011;3086;48.802;9.394;2022-12-16T08:14:09;29.07;;;17.47;;
6111;SDS011;3086;48.802;9.394;2022-12-16T08:17:49;31.43;;;17.77;;
6111;SDS011;3086;48.802;9.394;2022-12-16T08:21:29;38.53;;;18.83;;
6111;SDS011;3086;48.802;9.394;2022-12-16T08:25:08;31.23;;;19.80;;
6111;SDS011;3086;48.802;9.394;2022-12-16T08:28:49;28.27;;;18.40;;
6111;SDS011;3086;48.802;9.394;2022-12-16T08:32:29;33.13;;;20.07;;
6111;SDS011;3086;48.802;9.394;2022-12-16T08:36:11;28.43;;;18.47;;
6111;SDS011;3086;48.802;9.394;2022-12-16T08:39:51;31.13;;;18.27;;
6111;SDS011;3086;48.802;9.394;2022-12-16T08:43:31;25.30;;;16.73;;
6111;SDS011;3086;48.802;9.394;2022-12-16T08:47:12;27.87;;;17.87;;
6111;SDS011;3086;48.802;9.394;2022-12-16T08:50:52;24.67;;;16.57;;
6111;SDS011;3086;48.802;9.394;2022-12-16T08:54:32;27.27;;;16.73;;
6111;SDS011;3086;48.802;9.394;2022-12-16T08:58:29;23.97;;;15.07;;
6111;SDS011;3086;48.802;9.394;2022-12-16T09:02:08;21.70;;;15.47;;
6111;SDS011;3086;48.802;9.394;2022-12-16T09:05:49;21.97;;;15.70;;
6111;SDS011;3086;48.802;9.394;2022-12-16T09:09:28;21.97;;;15.87;;
6111;SDS011;3086;48.802;9.394;2022-12-16T09:13:08;23.47;;;15.43;;
6111;SDS011;3086;48.802;9.394;2022-12-16T09:16:48;21.20;;;14.87;;
6111;SDS011;3086;48.802;9.394;2022-12-16T09:20:27;22.33;;;13.70;;
6111;SDS011;3086;48.802;9.394;2022-12-16T09:24:07;23.43;;;15.73;;
6111;SDS011;3086;48.802;9.394;2022-12-16T09:27:43;22.60;;;14.20;;
6111;SDS011;3086;48.802;9.394;2022-12-16T09:31:22;22.83;;;15.23;;
6111;SDS011;3086;48.802;9.394;2022-12-16T09:35:01;23.93;;;16.43;;
6111;SDS011;3086;48.802;9.394;2022-12-16T09:38:44;22.50;;;14.90;;
6111;SDS011;3086;48.802;9.394;2022-12-16T09:42:47;20.40;;;13.90;;
6111;SDS011;3086;48.802;9.394;2022-12-16T09:46:30;18.50;;;13.23;;
6111;SDS011;3086;48.802;9.394;2022-12-16T09:50:18;24.87;;;15.13;;
6111;SDS011;3086;48.802;9.394;2022-12-16T09:53:59;23.83;;;14.13;;
6111;SDS011;3086;48.802;9.394;2022-12-16T09:57:40;20.60;;;14.13;;
6111;SDS011;3086;48.802;9.394;2022-12-16T10:01:22;20.03;;;14.03;;
6111;SDS011;3086;48.802;9.394;2022-12-16T10:05:05;22.10;;;12.53;;
6111;SDS011;3086;48.802;9.394;2022-12-16T10:08:52;18.13;;;12.47;;
6111;SDS011;3086;48.802;9.394;2022-12-16T10:12:38;26.93;;;17.17;;
6111;SDS011;3086;48.802;9.394;2022-12-16T10:16:30;25.07;;;16.00;;
6111;SDS011;3086;48.802;9.394;2022-12-16T10:20:15;19.10;;;12.83;;
6111;SDS011;3086;48.802;9.394;2022-12-16T10:24:27;23.37;;;13.97;;
6111;SDS011;3086;48.802;9.394;2022-12-16T10:28:17;20.53;;;13.27;;
6111;SDS011;3086;48.802;9.394;2022-12-16T10:32:03;19.27;;;13.03;;
6111;SDS011;3086;48.802;9.394;2022-12-16T10:35:50;31.67;;;13.97;;
6111;SDS011;3086;48.802;9.394;2022-12-16T10:39:30;24.77;;;13.97;;
6111;SDS011;3086;48.802;9.394;2022-12-16T10:43:14;24.37;;;13.60;;
6111;SDS011;3086;48.802;9.394;2022-12-16T10:47:09;20.07;;;13.87;;
6111;SDS011;3086;48.802;9.394;2022-12-16T10:50:49;19.20;;;12.37;;
6111;SDS011;3086;48.802;9.394;2022-12-16T10:54:30;20.00;;;14.10;;
6111;SDS011;3086;48.802;9.394;2022-12-16T10:58:14;22.93;;;15.13;;
6111;SDS011;3086;48.802;9.394;2022-12-16T11:01:58;20.27;;;13.87;;
6111;SDS011;3086;48.802;9.394;2022-12-16T11:05:40;20.10;;;12.27;;
6111;SDS011;3086;48.802;9.394;2022-12-16T11:09:20;17.50;;;12.60;;
6111;SDS011;3086;48.802;9.394;2022-12-16T11:13:05;19.47;;;13.40;;
6111;SDS011;3086;48.802;9.394;2022-12-16T11:17:06;19.67;;;13.30;;
6111;SDS011;3086;48.802;9.394;2022-12-16T11:25:13;18.70;;;12.83;;
6111;SDS011;3086;48.802;9.394;2022-12-16T11:29:05;26.80;;;16.80;;
6111;SDS011;3086;48.802;9.394;2022-12-16T11:32:48;18.83;;;12.70;;
6111;SDS011;3086;48.802;9.394;2022-12-16T11:36:29;17.70;;;12.80;;
6111;SDS011;3086;48.802;9.394;2022-12-16T11:40:13;22.40;;;14.67;;
6111;SDS011;3086;48.802;9.394;2022-12-16T11:43:53;22.60;;;13.10;;
6111;SDS011;3086;48.802;9.394;2022-12-16T11:47:34;16.57;;;11.70;;
6111;SDS011;3086;48.802;9.394;2022-12-16T11:51:14;18.67;;;13.27;;
6111;SDS011;3086;48.802;9.394;2022-12-16T11:54:56;15.20;;;10.90;;
6111;SDS011;3086;48.802;9.394;2022-12-16T11:58:41;16.37;;;11.77;;
6111;SDS011;3086;48.802;9.394;2022-12-16T12:02:24;19.17;;;11.07;;
6111;SDS011;3086;48.802;9.394;2022-12-16T12:06:10;17.87;;;13.13;;
6111;SDS011;3086;48.802;9.394;2022-12-16T12:09:57;18.60;;;12.07;;
6111;SDS011;3086;48.802;9.394;2022-12-16T12:17:38;16.73;;;12.13;;
6111;SDS011;3086;48.802;9.394;2022-12-16T12:21:22;17.50;;;11.63;;
6111;SDS011;3086;48.802;9.394;2022-12-16T12:25:03;15.80;;;10.93;;
6111;SDS011;3086;48.802;9.394;2022-12-16T12:28:50;14.60;;;10.93;;
6111;SDS011;3086;48.802;9.394;2022-12-16T12:32:38;15.50;;;11.50;;
6111;SDS011;3086;48.802;9.394;2022-12-16T12:36:23;19.03;;;12.67;;
6111;SDS011;3086;48.802;9.394;2022-12-16T12:40:12;14.70;;;10.50;;
6111;SDS011;3086;48.802;9.394;2022-12-16T12:44:00;15.60;;;11.23;;
6111;SDS011;3086;48.802;9.394;2022-12-16T12:47:46;14.27;;;10.83;;
6111;SDS011;3086;48.802;9.394;2022-12-16T12:51:32;14.70;;;10.30;;
6111;SDS011;3086;48.802;9.394;2022-12-16T12:55:20;15.63;;;10.43;;
6111;SDS011;3086;48.802;9.394;2022-12-16T12:59:04;17.93;;;10.93;;
6111;SDS011;3086;48.802;9.394;2022-12-16T13:02:59;15.03;;;10.17;;
6111;SDS011;3086;48.802;9.394;2022-12-16T13:06:44;18.47;;;11.53;;
6111;SDS011;3086;48.802;9.394;2022-12-16T13:10:31;17.50;;;12.80;;
6111;SDS011;3086;48.802;9.394;2022-12-16T13:18:30;16.87;;;10.63;;
6111;SDS011;3086;48.802;9.394;2022-12-16T13:22:25;12.93;;;9.33;;
6111;SDS011;3086;48.802;9.394;2022-12-16T13:26:05;14.83;;;9.93;;
6111;SDS011;3086;48.802;9.394;2022-12-16T13:29:59;14.37;;;11.13;;
6111;SDS011;3086;48.802;9.394;2022-12-16T13:33:43;14.07;;;10.43;;
6111;SDS011;3086;48.802;9.394;2022-12-16T13:37:31;14.83;;;10.90;;
6111;SDS011;3086;48.802;9.394;2022-12-16T13:45:30;14.33;;;10.33;;
6111;SDS011;3086;48.802;9.394;2022-12-16T13:53:28;16.60;;;11.13;;
6111;SDS011;3086;48.802;9.394;2022-12-16T13:57:18;17.37;;;10.93;;
6111;SDS011;3086;48.802;9.394;2022-12-16T14:01:08;21.00;;;13.20;;
6111;SDS011;3086;48.802;9.394;2022-12-16T14:04:52;17.60;;;11.27;;
6111;SDS011;3086;48.802;9.394;2022-12-16T14:08:43;22.03;;;11.40;;
6111;SDS011;3086;48.802;9.394;2022-12-16T14:12:33;15.57;;;11.33;;
6111;SDS011;3086;48.802;9.394;2022-12-16T14:16:36;18.83;;;11.90;;
6111;SDS011;3086;48.802;9.394;2022-12-16T14:20:26;17.47;;;11.07;;
6111;SDS011;3086;48.802;9.394;2022-12-16T14:24:09;15.63;;;10.43;;
6111;SDS011;3086;48.802;9.394;2022-12-16T14:27:50;16.97;;;11.20;;
6111;SDS011;3086;48.802;9.394;2022-12-16T14:31:33;15.20;;;12.03;;
6111;SDS011;3086;48.802;9.394;2022-12-16T14:35:24;17.40;;;11.47;;
6111;SDS011;3086;48.802;9.394;2022-12-16T14:39:10;16.73;;;12.53;;
6111;SDS011;3086;48.802;9.394;2022-12-16T14:42:51;15.27;;;10.27;;
6111;SDS011;3086;48.802;9.394;2022-12-16T14:46:31;17.00;;;10.97;;
6111;SDS011;3086;48.802;9.394;2022-12-16T14:50:18;14.97;;;10.63;;
6111;SDS011;3086;48.802;9.394;2022-12-16T14:54:10;18.60;;;11.97;;
6111;SDS011;3086;48.802;9.394;2022-12-16T14:58:04;16.00;;;10.83;;
6111;SDS011;3086;48.802;9.394;2022-12-16T15:01:54;15.67;;;10.97;;
6111;SDS011;3086;48.802;9.394;2022-12-16T15:05:35;15.47;;;12.10;;
6111;SDS011;3086;48.802;9.394;2022-12-16T15:09:22;16.17;;;12.67;;
6111;SDS011;3086;48.802;9.394;2022-12-16T15:13:03;22.80;;;14.47;;
6111;SDS011;3086;48.802;9.394;2022-12-16T15:16:48;20.63;;;14.60;;
6111;SDS011;3086;48.802;9.394;2022-12-16T15:20:31;23.40;;;15.50;;
6111;SDS011;3086;48.802;9.394;2022-12-16T15:24:14;21.43;;;14.70;;
6111;SDS011;3086;48.802;9.394;2022-12-16T15:28:00;23.20;;;15.77;;
6111;SDS011;3086;48.802;9.394;2022-12-16T15:31:40;20.40;;;13.80;;
6111;SDS011;3086;48.802;9.394;2022-12-16T15:35:23;19.90;;;13.33;;
6111;SDS011;3086;48.802;9.394;2022-12-16T15:39:08;20.90;;;13.07;;
6111;SDS011;3086;48.802;9.394;2022-12-16T15:42:50;17.73;;;12.13;;
6111;SDS011;3086;48.802;9.394;2022-12-16T15:46:31;19.50;;;13.60;;
6111;SDS011;3086;48.802;9.394;2022-12-16T15:50:11;18.20;;;13.03;;
6111;SDS011;3086;48.802;9.394;2022-12-16T15:54:11;20.03;;;14.80;;
6111;SDS011;3086;48.802;9.394;2022-12-16T15:57:55;23.80;;;17.30;;
6111;SDS011;3086;48.802;9.394;2022-12-16T16:01:39;22.83;;;15.27;;
6111;SDS011;3086;48.802;9.394;2022-12-16T16:05:19;18.97;;;12.67;;
6111;SDS011;3086;48.802;9.394;2022-12-16T16:08:58;20.37;;;13.07;;
6111;SDS011;3086;48.802;9.394;2022-12-16T16:12:46;21.47;;;14.77;;
6111;SDS011;3086;48.802;9.394;2022-12-16T16:16:26;22.07;;;14.13;;
6111;SDS011;3086;48.802;9.394;2022-12-16T16:20:08;23.10;;;14.13;;
6111;SDS011;3086;48.802;9.394;2022-12-16T16:23:52;20.03;;;15.50;;
6111;SDS011;3086;48.802;9.394;2022-12-16T16:27:32;17.87;;;13.53;;
6111;SDS011;3086;48.802;9.394;2022-12-16T16:31:10;21.77;;;13.57;;
6111;SDS011;3086;48.802;9.394;2022-12-16T16:34:49;23.47;;;13.67;;
6111;SDS011;3086;48.802;9.394;2022-12-16T16:38:30;25.90;;;15.07;;
6111;SDS011;3086;48.802;9.394;2022-12-16T16:42:09;25.43;;;17.93;;
6111;SDS011;3086;48.802;9.394;2022-12-16T16:45:51;24.03;;;14.60;;
6111;SDS011;3086;48.802;9.394;2022-12-16T16:49:31;24.53;;;13.27;;
6111;SDS011;3086;48.802;9.394;2022-12-16T16:53:12;18.67;;;13.33;;
6111;SDS011;3086;48.802;9.394;2022-12-16T16:56:54;21.70;;;14.17;;
6111;SDS011;3086;48.802;9.394;2022-12-16T17:00:33;21.77;;;16.10;;
6111;SDS011;3086;48.802;9.394;2022-12-16T17:04:08;23.57;;;14.57;;
6111;SDS011;3086;48.802;9.394;2022-12-16T17:07:48;18.00;;;13.43;;
6111;SDS011;3086;48.802;9.394;2022-12-16T17:11:26;21.37;;;13.47;;
6111;SDS011;3086;48.802;9.394;2022-12-16T17:15:13;20.93;;;13.97;;
6111;SDS011;3086;48.802;9.394;2022-12-16T17:18:53;20.87;;;15.67;;
6111;SDS011;3086;48.802;9.394;2022-12-16T17:22:36;20.83;;;13.97;;
6111;SDS011;3086;48.802;9.394;2022-12-16T17:26:15;22.90;;;14.60;;
6111;SDS011;3086;48.802;9.394;2022-12-16T17:29:54;24.87;;;14.80;;
6111;SDS011;3086;48.802;9.394;2022-12-16T17:33:34;22.30;;;15.47;;
6111;SDS011;3086;48.802;9.394;2022-12-16T17:37:24;20.17;;;14.93;;
6111;SDS011;3086;48.802;9.394;2022-12-16T17:41:03;22.80;;;14.10;;
6111;SDS011;3086;48.802;9.394;2022-12-16T17:44:43;24.97;;;14.60;;
6111;SDS011;3086;48.802;9.394;2022-12-16T17:48:25;22.47;;;16.20;;
6111;SDS011;3086;48.802;9.394;2022-12-16T17:52:05;24.27;;;14.73;;
6111;SDS011;3086;48.802;9.394;2022-12-16T17:55:45;21.23;;;14.40;;
6111;SDS011;3086;48.802;9.394;2022-12-16T17:59:24;24.17;;;15.47;;
6111;SDS011;3086;48.802;9.394;2022-12-16T18:03:03;20.90;;;14.27;;
6111;SDS011;3086;48.802;9.394;2022-12-16T18:06:42;22.63;;;15.53;;
6111;SDS011;3086;48.802;9.394;2022-12-16T18:10:23;21.23;;;15.27;;
6111;SDS011;3086;48.802;9.394;2022-12-16T18:14:02;21.70;;;16.00;;
6111;SDS011;3086;48.802;9.394;2022-12-16T18:17:42;26.87;;;17.87;;
6111;SDS011;3086;48.802;9.394;2022-12-16T18:21:24;26.43;;;16.87;;
6111;SDS011;3086;48.802;9.394;2022-12-16T18:25:03;25.47;;;16.10;;
6111;SDS011;3086;48.802;9.394;2022-12-16T18:28:44;23.90;;;15.30;;
6111;SDS011;3086;48.802;9.394;2022-12-16T18:32:24;24.27;;;16.00;;
6111;SDS011;3086;48.802;9.394;2022-12-16T18:36:03;29.17;;;17.30;;
6111;SDS011;3086;48.802;9.394;2022-12-16T18:39:43;25.03;;;18.57;;
6111;SDS011;3086;48.802;9.394;2022-12-16T18:43:22;26.17;;;16.30;;
6111;SDS011;3086;48.802;9.394;2022-12-16T18:47:03;27.57;;;17.17;;
6111;SDS011;3086;48.802;9.394;2022-12-16T18:50:52;28.63;;;19.47;;
6111;SDS011;3086;48.802;9.394;2022-12-16T18:54:46;27.37;;;16.57;;
6111;SDS011;3086;48.802;9.394;2022-12-16T18:58:25;27.57;;;16.50;;
6111;SDS011;3086;48.802;9.394;2022-12-16T19:02:06;29.73;;;18.07;;
6111;SDS011;3086;48.802;9.394;2022-12-16T19:05:51;24.20;;;16.47;;
6111;SDS011;3086;48.802;9.394;2022-12-16T19:09:31;30.23;;;18.87;;
6111;SDS011;3086;48.802;9.394;2022-12-16T19:13:11;26.20;;;19.17;;
6111;SDS011;3086;48.802;9.394;2022-12-16T19:16:50;23.53;;;16.97;;
6111;SDS011;3086;48.802;9.394;2022-12-16T19:20:30;23.07;;;17.40;;
6111;SDS011;3086;48.802;9.394;2022-12-16T19:24:09;26.33;;;16.67;;
6111;SDS011;3086;48.802;9.394;2022-12-16T19:27:48;23.20;;;16.60;;
6111;SDS011;3086;48.802;9.394;2022-12-16T19:31:27;38.13;;;24.10;;
6111;SDS011;3086;48.802;9.394;2022-12-16T19:35:06;43.20;;;25.40;;
6111;SDS011;3086;48.802;9.394;2022-12-16T19:38:55;24.53;;;17.17;;
6111;SDS011;3086;48.802;9.394;2022-12-16T19:42:34;26.33;;;16.27;;
6111;SDS011;3086;48.802;9.394;2022-12-16T19:46:13;31.33;;;18.03;;
6111;SDS011;3086;48.802;9.394;2022-12-16T19:49:52;25.73;;;15.53;;
6111;SDS011;3086;48.802;9.394;2022-12-16T19:53:31;27.50;;;18.10;;
6111;SDS011;3086;48.802;9.394;2022-12-16T19:57:11;27.03;;;17.87;;
6111;SDS011;3086;48.802;9.394;2022-12-16T20:00:50;27.97;;;18.00;;
6111;SDS011;3086;48.802;9.394;2022-12-16T20:04:29;25.17;;;17.63;;
6111;SDS011;3086;48.802;9.394;2022-12-16T20:08:08;25.60;;;18.57;;
6111;SDS011;3086;48.802;9.394;2022-12-16T20:11:47;28.00;;;18.20;;
6111;SDS011;3086;48.802;9.394;2022-12-16T20:15:28;25.23;;;16.67;;
6111;SDS011;3086;48.802;9.394;2022-12-16T20:19:07;24.50;;;15.93;;
6111;SDS011;3086;48.802;9.394;2022-12-16T20:22:46;26.10;;;16.43;;
6111;SDS011;3086;48.802;9.394;2022-12-16T20:26:25;31.73;;;20.93;;
6111;SDS011;3086;48.802;9.394;2022-12-16T20:30:04;38.50;;;23.43;;
6111;SDS011;3086;48.802;9.394;2022-12-16T20:33:56;24.27;;;16.27;;
6111;SDS011;3086;48.802;9.394;2022-12-16T20:37:36;27.87;;;18.57;;
6111;SDS011;3086;48.802;9.394;2022-12-16T20:41:15;30.10;;;20.97;;
6111;SDS011;3086;48.802;9.394;2022-12-16T20:44:54;30.47;;;18.37;;
6111;SDS011;3086;48.802;9.394;2022-12-16T20:48:33;31.73;;;19.77;;
6111;SDS011;3086;48.802;9.394;2022-12-16T20:52:13;26.13;;;19.67;;
6111;SDS011;3086;48.802;9.394;2022-12-16T20:55:52;32.87;;;18.77;;
6111;SDS011;3086;48.802;9.394;2022-12-16T20:59:33;29.67;;;19.60;;
6111;SDS011;3086;48.802;9.394;2022-12-16T21:03:12;27.40;;;18.13;;
6111;SDS011;3086;48.802;9.394;2022-12-16T21:06:54;27.00;;;17.47;;
6111;SDS011;3086;48.802;9.394;2022-12-16T21:10:47;24.17;;;15.40;;
6111;SDS011;3086;48.802;9.394;2022-12-16T21:14:27;23.17;;;15.90;;
6111;SDS011;3086;48.802;9.394;2022-12-16T21:18:06;24.27;;;15.73;;
6111;SDS011;3086;48.802;9.394;2022-12-16T21:21:46;27.03;;;17.97;;
6111;SDS011;3086;48.802;9.394;2022-12-16T21:25:27;24.73;;;15.57;;
6111;SDS011;3086;48.802;9.394;2022-12-16T21:29:08;23.87;;;15.97;;
6111;SDS011;3086;48.802;9.394;2022-12-16T21:32:48;22.67;;;16.03;;
6111;SDS011;3086;48.802;9.394;2022-12-16T21:36:28;26.57;;;15.37;;
6111;SDS011;3086;48.802;9.394;2022-12-16T21:40:07;23.50;;;14.23;;
6111;SDS011;3086;48.802;9.394;2022-12-16T21:43:50;19.57;;;15.00;;
6111;SDS011;3086;48.802;9.394;2022-12-16T21:47:30;23.27;;;16.40;;
6111;SDS011;3086;48.802;9.394;2022-12-16T21:51:09;27.10;;;16.47;;
6111;SDS011;3086;48.802;9.394;2022-12-16T21:54:48;26.80;;;18.07;;
6111;SDS011;3086;48.802;9.394;2022-12-16T21:58:33;21.93;;;16.10;;
6111;SDS011;3086;48.802;9.394;2022-12-16T22:02:12;26.47;;;17.70;;
6111;SDS011;3086;48.802;9.394;2022-12-16T22:05:52;23.53;;;16.40;;
6111;SDS011;3086;48.802;9.394;2022-12-16T22:09:31;26.37;;;16.57;;
6111;SDS011;3086;48.802;9.394;2022-12-16T22:13:10;31.67;;;18.47;;
6111;SDS011;3086;48.802;9.394;2022-12-16T22:16:49;24.90;;;16.47;;